Time;durP1;ratioP1;P1;durP2;ratioP2;P2;SDS_P1;SDS_P2;PMS_P1;PMS_P2;Temp;Humidity;BMP_temperature;BMP_pressure;BME280_temperature;BME280_humidity;BME280_pressure;Samples;Min_cycle;Max_cycle;Signal;HPM_P1;HPM_P2
2021/05/15 00:00:37;;;;;;;0.10;0.10;;;12.70;99.90;;;;;;6243033;22;20082;-79
2021/05/15 00:03:03;;;;;;;0.10;0.10;;;12.60;99.90;;;;;;6242730;22;20011;-78
2021/05/15 00:05:29;;;;;;;0.10;0.10;;;12.60;99.90;;;;;;6242936;23;20085;-79
2021/05/15 00:07:55;;;;;;;0.10;0.10;;;12.50;99.90;;;;;;6242679;23;20451;-79
2021/05/15 00:10:22;;;;;;;0.10;0.10;;;12.40;99.90;;;;;;6213819;22;20435;-78
2021/05/15 00:12:48;;;;;;;;;;;12.40;99.90;;;;;;6213518;23;20564;-79
2021/05/15 00:15:14;;;;;;;0.10;0.10;;;12.40;99.90;;;;;;6238951;23;19919;-78
2021/05/15 00:17:40;;;;;;;0.10;0.10;;;12.30;99.90;;;;;;6239657;22;20014;-78
2021/05/15 00:20:12;;;;;;;0.10;0.10;;;12.30;99.90;;;;;;6239087;23;20004;-78
2021/05/15 00:22:39;;;;;;;0.10;0.10;;;12.20;99.90;;;;;;6239578;23;20246;-78
2021/05/15 00:25:07;;;;;;;0.10;0.10;;;12.20;99.90;;;;;;6239327;23;20024;-77
2021/05/15 00:27:33;;;;;;;;;;;12.20;99.90;;;;;;6242851;23;20000;-78
2021/05/15 00:29:58;;;;;;;0.10;0.10;;;12.20;99.90;;;;;;6215313;23;19904;-79
2021/05/15 00:32:25;;;;;;;0.10;0.10;;;12.20;99.90;;;;;;6242607;23;20011;-79
2021/05/15 00:34:51;;;;;;;0.10;0.10;;;12.20;99.90;;;;;;6242575;22;20007;-78
2021/05/15 00:37:17;;;;;;;0.10;0.10;;;12.20;99.90;;;;;;6242961;23;20000;-78
2021/05/15 00:39:43;;;;;;;0.10;0.10;;;12.30;99.90;;;;;;6242234;22;20008;-79
2021/05/15 00:42:09;;;;;;;0.10;0.10;;;12.30;99.90;;;;;;6242810;22;20332;-78
2021/05/15 00:44:47;;;;;;;0.10;0.10;;;12.30;99.90;;;;;;6215077;23;20008;-78
2021/05/15 00:47:15;;;;;;;0.10;0.10;;;12.30;99.90;;;;;;6242552;22;20074;-79
2021/05/15 00:49:42;;;;;;;0.10;0.10;;;12.40;99.90;;;;;;6242407;23;20012;-79
2021/05/15 00:52:08;;;;;;;0.10;0.10;;;12.40;99.90;;;;;;6242787;23;20000;-79
2021/05/15 00:54:39;;;;;;;0.10;0.10;;;12.40;99.90;;;;;;6242312;23;20079;-79
2021/05/15 00:57:06;;;;;;;0.10;0.10;;;12.40;99.90;;;;;;6242538;23;19996;-77
2021/05/15 00:59:33;;;;;;;0.10;0.10;;;12.40;99.90;;;;;;6242199;23;20028;-78
2021/05/15 01:01:59;;;;;;;0.10;0.10;;;12.40;99.90;;;;;;6242121;23;20000;-78
2021/05/15 01:04:24;;;;;;;0.10;0.10;;;12.40;99.90;;;;;;6242010;23;20549;-78
2021/05/15 01:06:51;;;;;;;0.10;0.10;;;12.40;99.90;;;;;;6242427;22;20308;-78
2021/05/15 01:09:17;;;;;;;0.10;0.10;;;12.30;99.90;;;;;;6242036;23;20004;-78
2021/05/15 01:11:43;;;;;;;0.10;0.10;;;12.30;99.90;;;;;;6242299;23;20435;-77
2021/05/15 01:14:09;;;;;;;0.10;0.10;;;12.30;99.90;;;;;;6241188;23;20000;-77
2021/05/15 01:16:35;;;;;;;0.10;0.10;;;12.30;99.90;;;;;;6215821;23;20004;-77
2021/05/15 01:19:01;;;;;;;0.10;0.10;;;12.30;99.90;;;;;;6214679;23;20424;-77
2021/05/15 01:21:27;;;;;;;0.10;0.10;;;12.30;99.90;;;;;;6242663;23;20046;-77
2021/05/15 01:23:53;;;;;;;0.10;0.10;;;12.40;99.90;;;;;;6214703;23;20020;-78
2021/05/15 01:26:25;;;;;;;0.10;0.10;;;12.40;99.90;;;;;;6242580;22;20079;-77
2021/05/15 01:28:52;;;;;;;0.10;0.10;;;12.40;99.90;;;;;;6241531;23;20000;-77
2021/05/15 01:31:19;;;;;;;0.03;0.03;;;12.40;99.90;;;;;;6242680;23;20466;-77
2021/05/15 01:33:45;;;;;;;0.10;0.10;;;12.40;99.90;;;;;;6241801;23;20023;-77
2021/05/15 01:36:11;;;;;;;0.10;0.10;;;12.40;99.90;;;;;;6215790;23;20428;-75
2021/05/15 01:38:37;;;;;;;0.10;0.10;;;12.40;99.90;;;;;;6242006;23;20011;-75
2021/05/15 01:41:14;;;;;;;0.10;0.10;;;12.50;99.90;;;;;;6215922;23;20133;-75
2021/05/15 01:43:41;;;;;;;0.10;0.10;;;12.40;99.90;;;;;;6214867;23;20414;-77
2021/05/15 01:46:07;;;;;;;0.10;0.10;;;12.40;99.90;;;;;;6242548;23;20005;-77
2021/05/15 01:48:34;;;;;;;0.05;0.05;;;12.40;99.90;;;;;;6214786;22;20001;-77
2021/05/15 01:51:05;;;;;;;0.10;0.10;;;12.40;99.90;;;;;;6242229;22;20012;-77
2021/05/15 01:53:37;;;;;;;0.10;0.10;;;12.40;99.90;;;;;;6241673;22;20424;-77
2021/05/15 01:56:06;;;;;;;0.10;0.10;;;12.40;99.90;;;;;;6241995;23;20000;-77
2021/05/15 01:58:31;;;;;;;0.10;0.10;;;12.40;99.90;;;;;;6241650;22;20074;-77
2021/05/15 02:00:57;;;;;;;0.10;0.10;;;12.40;99.90;;;;;;6242253;23;20000;-77
2021/05/15 02:03:23;;;;;;;0.10;0.10;;;12.40;99.90;;;;;;6241785;23;20012;-77
2021/05/15 02:05:49;;;;;;;0.08;0.08;;;12.50;99.90;;;;;;6241790;23;20015;-77
2021/05/15 02:08:19;;;;;;;0.10;0.10;;;12.50;99.90;;;;;;6215178;23;20047;-77
2021/05/15 02:10:45;;;;;;;0.10;0.10;;;12.50;99.90;;;;;;6241924;22;20715;-77
2021/05/15 02:13:11;;;;;;;0.10;0.10;;;12.50;99.90;;;;;;6214676;23;20697;-77
2021/05/15 02:15:37;;;;;;;0.10;0.10;;;12.40;99.90;;;;;;6241992;23;20003;-76
2021/05/15 02:18:04;;;;;;;0.10;0.10;;;12.40;99.90;;;;;;6241861;23;20087;-77
2021/05/15 02:20:30;;;;;;;;;;;12.40;99.90;;;;;;6242477;22;20000;-77
2021/05/15 02:22:57;;;;;;;0.10;0.10;;;12.40;99.90;;;;;;6241425;23;19914;-77
2021/05/15 02:25:23;;;;;;;0.10;0.10;;;12.40;99.90;;;;;;6243497;23;20090;-77
2021/05/15 02:27:49;;;;;;;0.10;0.10;;;12.40;99.90;;;;;;6244029;22;20000;-77
2021/05/15 02:30:15;;;;;;;0.10;0.10;;;12.40;99.90;;;;;;6243410;23;20004;-77
2021/05/15 02:32:41;;;;;;;0.10;0.10;;;12.40;99.90;;;;;;6243840;23;20003;-77
2021/05/15 02:35:07;;;;;;;0.10;0.10;;;12.50;99.90;;;;;;6216437;23;20001;-77
2021/05/15 02:37:33;;;;;;;0.10;0.10;;;12.40;99.90;;;;;;6244184;22;20019;-77
2021/05/15 02:39:59;;;;;;;0.10;0.10;;;12.50;99.90;;;;;;6243505;23;20011;-77
2021/05/15 02:42:24;;;;;;;0.10;0.10;;;12.50;99.90;;;;;;6243920;23;20004;-77
2021/05/15 02:44:52;;;;;;;0.10;0.10;;;12.50;99.90;;;;;;6243015;23;20012;-76
2021/05/15 02:47:21;;;;;;;0.10;0.10;;;12.50;99.90;;;;;;6243988;23;20003;-77
2021/05/15 02:49:48;;;;;;;0.10;0.10;;;12.50;99.90;;;;;;6243212;22;20110;-77
2021/05/15 02:52:14;;;;;;;0.10;0.10;;;12.50;99.90;;;;;;6217125;23;20027;-77
2021/05/15 02:54:40;;;;;;;0.10;0.10;;;12.50;99.90;;;;;;6243100;23;20001;-77
2021/05/15 02:57:06;;;;;;;0.10;0.10;;;12.50;99.90;;;;;;6216947;23;20031;-77
2021/05/15 02:59:32;;;;;;;0.10;0.10;;;12.50;99.90;;;;;;6243052;23;20000;-76
2021/05/15 03:01:58;;;;;;;0.10;0.10;;;12.50;99.90;;;;;;6243294;23;20058;-77
2021/05/15 03:04:23;;;;;;;0.10;0.10;;;12.50;99.90;;;;;;6242825;23;20012;-77
2021/05/15 03:06:49;;;;;;;0.10;0.10;;;12.50;99.90;;;;;;6243658;22;19996;-77
2021/05/15 03:09:14;;;;;;;0.10;0.10;;;12.50;99.90;;;;;;6243336;22;20007;-76
2021/05/15 03:11:40;;;;;;;0.10;0.10;;;12.40;99.90;;;;;;6243698;22;20022;-76
2021/05/15 03:14:06;;;;;;;0.05;0.05;;;12.40;99.90;;;;;;6242893;22;20423;-77
2021/05/15 03:16:32;;;;;;;0.10;0.10;;;12.40;99.90;;;;;;6243724;23;20008;-76
2021/05/15 03:18:58;;;;;;;0.10;0.10;;;12.40;99.90;;;;;;6242823;23;20004;-77
2021/05/15 03:21:24;;;;;;;0.10;0.10;;;12.40;99.90;;;;;;6243352;22;20012;-76
2021/05/15 03:23:50;;;;;;;0.10;0.10;;;12.40;99.90;;;;;;6242791;23;20074;-76
2021/05/15 03:26:15;;;;;;;0.10;0.10;;;12.40;99.90;;;;;;6216285;23;20012;-76
2021/05/15 03:28:41;;;;;;;0.10;0.10;;;12.40;99.90;;;;;;6216084;23;20035;-76
2021/05/15 03:31:07;;;;;;;0.10;0.10;;;12.40;99.90;;;;;;6216503;23;20098;-77
2021/05/15 03:33:32;;;;;;;0.10;0.10;;;12.40;99.90;;;;;;6215943;23;20015;-76
2021/05/15 03:35:58;;;;;;;0.10;0.10;;;12.40;99.90;;;;;;6242852;23;20001;-76
2021/05/15 03:38:24;;;;;;;0.10;0.10;;;12.40;99.90;;;;;;6242677;23;20011;-74
2021/05/15 03:40:49;;;;;;;0.10;0.10;;;12.40;99.90;;;;;;6243543;23;20482;-74
2021/05/15 03:43:15;;;;;;;0.10;0.10;;;12.40;99.90;;;;;;6242750;23;20000;-77
2021/05/15 03:45:41;;;;;;;0.10;0.10;;;12.40;99.90;;;;;;6242786;23;20012;-77
2021/05/15 03:48:07;;;;;;;0.10;0.10;;;12.50;99.90;;;;;;6242340;22;20008;-77
2021/05/15 03:50:33;;;;;;;0.10;0.10;;;12.40;99.90;;;;;;6216073;23;20008;-76
2021/05/15 03:52:58;;;;;;;0.10;0.10;;;12.40;99.90;;;;;;6242853;23;20480;-77
2021/05/15 03:55:24;;;;;;;0.10;0.10;;;12.40;99.90;;;;;;6243033;23;20023;-77
2021/05/15 03:57:50;;;;;;;0.10;0.10;;;12.40;99.90;;;;;;6242959;22;20032;-77
2021/05/15 04:00:16;;;;;;;0.10;0.10;;;12.40;99.90;;;;;;6242660;23;20008;-77
2021/05/15 04:02:42;;;;;;;0.10;0.10;;;12.50;99.90;;;;;;6242925;22;19996;-77
2021/05/15 04:05:08;;;;;;;0.10;0.10;;;12.60;99.90;;;;;;6242281;22;20312;-77
2021/05/15 04:07:34;;;;;;;0.10;0.10;;;12.60;99.90;;;;;;6242860;23;20492;-77
2021/05/15 04:10:00;;;;;;;0.10;0.10;;;12.60;99.90;;;;;;6215657;23;20091;-77
2021/05/15 04:12:33;;;;;;;0.10;0.10;;;12.60;99.90;;;;;;6215535;23;20446;-77
2021/05/15 04:15:09;;;;;;;0.10;0.10;;;12.60;99.90;;;;;;6241810;23;20001;-77
2021/05/15 04:17:35;;;;;;;0.10;0.10;;;12.60;99.90;;;;;;6242686;23;20004;-77
2021/05/15 04:20:01;;;;;;;0.10;0.10;;;12.60;99.90;;;;;;6242288;23;20419;-79
2021/05/15 04:22:27;;;;;;;0.10;0.10;;;12.60;99.90;;;;;;6242481;22;20039;-78
2021/05/15 04:24:54;;;;;;;0.10;0.10;;;12.70;99.90;;;;;;6242098;22;20455;-79
2021/05/15 04:27:19;;;;;;;0.10;0.10;;;12.70;99.90;;;;;;6242651;23;20427;-77
2021/05/15 04:29:46;;;;;;;0.10;0.10;;;12.80;99.90;;;;;;6215079;22;20004;-77
2021/05/15 04:32:12;;;;;;;0.10;0.10;;;12.90;99.90;;;;;;6242505;22;19992;-78
2021/05/15 04:34:38;;;;;;;0.10;0.10;;;13.00;99.90;;;;;;6242000;22;20355;-78
2021/05/15 04:37:04;;;;;;;0.10;0.10;;;13.10;99.90;;;;;;6215363;23;20010;-78
2021/05/15 04:39:33;;;;;;;0.10;0.10;;;13.20;99.90;;;;;;6241883;23;20076;-78
2021/05/15 04:41:59;;;;;;;0.10;0.10;;;13.20;99.90;;;;;;6242497;23;20000;-78
2021/05/15 04:44:25;;;;;;;0.10;0.10;;;13.30;99.90;;;;;;6242046;22;20412;-78
2021/05/15 04:46:51;;;;;;;0.10;0.10;;;13.30;99.90;;;;;;6242226;23;20227;-79
2021/05/15 04:49:18;;;;;;;0.10;0.10;;;13.50;99.90;;;;;;6241358;23;19992;-79
2021/05/15 04:51:44;;;;;;;0.10;0.10;;;13.60;99.90;;;;;;6215630;23;20007;-77
2021/05/15 04:54:10;;;;;;;0.10;0.10;;;13.70;99.90;;;;;;6241249;23;20079;-78
2021/05/15 04:56:36;;;;;;;0.10;0.10;;;13.80;99.90;;;;;;6214799;23;20027;-77
2021/05/15 04:59:03;;;;;;;0.10;0.10;;;13.90;99.90;;;;;;6242209;22;20067;-78
2021/05/15 05:01:29;;;;;;;0.10;0.10;;;14.00;99.90;;;;;;6242303;23;20481;-76
2021/05/15 05:03:54;;;;;;;0.10;0.10;;;14.00;99.90;;;;;;6242095;22;20001;-77
2021/05/15 05:06:20;;;;;;;0.10;0.10;;;14.10;99.90;;;;;;6242023;23;20343;-77
2021/05/15 05:08:46;;;;;;;0.00;0.00;;;14.10;99.90;;;;;;6214901;23;20004;-77
2021/05/15 05:11:12;;;;;;;0.10;0.10;;;14.10;99.90;;;;;;6242237;22;20273;-78
2021/05/15 05:13:37;;;;;;;0.05;0.05;;;14.10;99.90;;;;;;6241228;22;20004;-76
2021/05/15 05:16:03;;;;;;;0.10;0.10;;;14.20;99.90;;;;;;6242034;23;20000;-78
2021/05/15 05:18:29;;;;;;;0.10;0.10;;;14.30;99.90;;;;;;6241940;23;19996;-80
2021/05/15 05:20:56;;;;;;;0.10;0.10;;;14.30;99.90;;;;;;6242659;23;20004;-77
2021/05/15 05:23:22;;;;;;;;;;;14.40;99.90;;;;;;6215682;23;20055;-77
2021/05/15 05:25:48;;;;;;;0.10;0.10;;;14.50;99.90;;;;;;6242003;22;19918;-78
2021/05/15 05:28:20;;;;;;;0.10;0.10;;;14.50;99.90;;;;;;6215061;23;20077;-78
2021/05/15 05:30:46;;;;;;;0.10;0.10;;;14.60;99.90;;;;;;6215656;23;20016;-78
2021/05/15 05:33:12;;;;;;;0.10;0.10;;;14.80;99.90;;;;;;6241911;23;20026;-77
2021/05/15 05:35:38;;;;;;;0.10;0.10;;;14.80;99.90;;;;;;6242259;23;20163;-78
2021/05/15 05:38:04;;;;;;;0.00;0.00;;;14.90;99.90;;;;;;6242017;22;20004;-78
2021/05/15 05:40:30;;;;;;;0.10;0.10;;;15.00;99.90;;;;;;6242441;23;20007;-77
2021/05/15 05:42:55;;;;;;;0.10;0.10;;;15.10;99.90;;;;;;6241957;23;20001;-77
2021/05/15 05:45:21;;;;;;;0.00;0.00;;;15.10;99.90;;;;;;6214897;23;20099;-77
2021/05/15 05:47:47;;;;;;;0.10;0.10;;;15.20;99.90;;;;;;6242122;23;20484;-77
2021/05/15 05:50:13;;;;;;;0.10;0.10;;;15.20;99.90;;;;;;6241746;23;20012;-77
2021/05/15 05:52:39;;;;;;;0.10;0.10;;;15.30;99.90;;;;;;6242142;23;20000;-78
2021/05/15 05:55:07;;;;;;;0.10;0.10;;;15.30;99.90;;;;;;6214936;23;20004;-77
2021/05/15 05:57:33;;;;;;;0.10;0.10;;;15.40;99.90;;;;;;6242170;22;20302;-79
2021/05/15 05:59:58;;;;;;;0.10;0.10;;;15.60;99.90;;;;;;6215756;23;20404;-78
2021/05/15 06:02:24;;;;;;;0.00;0.00;;;15.80;99.90;;;;;;6244233;23;20406;-78
2021/05/15 06:04:50;;;;;;;0.10;0.10;;;16.00;99.90;;;;;;6243749;23;20038;-78
2021/05/15 06:07:16;;;;;;;0.10;0.10;;;16.10;99.90;;;;;;6244328;23;20008;-78
2021/05/15 06:09:42;;;;;;;0.10;0.10;;;16.20;99.90;;;;;;6243531;22;20030;-78
2021/05/15 06:12:11;;;;;;;0.10;0.10;;;16.30;99.90;;;;;;6244193;23;20004;-78
2021/05/15 06:14:38;;;;;;;0.10;0.10;;;16.50;99.90;;;;;;6243637;23;20008;-78
2021/05/15 06:17:04;;;;;;;;;;;16.60;99.90;;;;;;6244593;23;19996;-78
2021/05/15 06:19:30;;;;;;;0.10;0.10;;;16.70;99.90;;;;;;6243201;23;20530;-77
2021/05/15 06:21:56;;;;;;;0.10;0.10;;;16.80;99.90;;;;;;6244201;23;20054;-77
2021/05/15 06:24:21;;;;;;;0.10;0.10;;;16.70;99.90;;;;;;6242947;23;20008;-77
2021/05/15 06:26:47;;;;;;;0.10;0.10;;;16.70;99.90;;;;;;6217142;23;20069;-78
2021/05/15 06:29:12;;;;;;;0.10;0.10;;;16.80;99.90;;;;;;6243459;23;20008;-78
2021/05/15 06:31:39;;;;;;;0.10;0.10;;;16.80;99.90;;;;;;6243982;22;20008;-78
2021/05/15 06:34:05;;;;;;;0.10;0.10;;;16.80;99.90;;;;;;6243179;22;20007;-78
2021/05/15 06:36:31;;;;;;;0.10;0.10;;;16.90;99.90;;;;;;6243661;22;20187;-77
2021/05/15 06:38:56;;;;;;;0.10;0.10;;;17.10;99.90;;;;;;6216183;23;20474;-79
2021/05/15 06:41:22;;;;;;;0.10;0.10;;;17.20;99.90;;;;;;6243915;23;20008;-78
2021/05/15 06:43:47;;;;;;;0.10;0.10;;;17.20;99.90;;;;;;6243353;23;20039;-79
2021/05/15 06:46:13;;;;;;;0.10;0.10;;;17.30;99.90;;;;;;6243855;23;20293;-78
2021/05/15 06:48:39;;;;;;;0.10;0.10;;;17.40;99.90;;;;;;6242944;23;20000;-78
2021/05/15 06:51:05;;;;;;;0.10;0.10;;;17.50;99.90;;;;;;6243711;23;20027;-79
2021/05/15 06:53:30;;;;;;;0.10;0.10;;;17.50;99.90;;;;;;6243378;22;20003;-80
2021/05/15 06:55:56;;;;;;;0.10;0.10;;;17.50;99.90;;;;;;6243310;23;20004;-78
2021/05/15 06:58:22;;;;;;;0.10;0.10;;;17.50;99.90;;;;;;6243315;23;20007;-79
2021/05/15 07:00:47;;;;;;;0.10;0.10;;;17.60;99.90;;;;;;6243388;23;20094;-79
2021/05/15 07:03:13;;;;;;;0.10;0.10;;;17.70;99.90;;;;;;6243326;23;20004;-79
2021/05/15 07:05:39;;;;;;;0.10;0.10;;;17.90;99.90;;;;;;6216482;23;20023;-79
2021/05/15 07:08:04;;;;;;;0.10;0.10;;;17.90;99.90;;;;;;6216322;23;20003;-82
2021/05/15 07:10:30;;;;;;;0.10;0.10;;;17.90;99.90;;;;;;6215549;23;20015;-78
2021/05/15 07:12:56;;;;;;;0.10;0.10;;;17.60;99.90;;;;;;6243116;22;20007;-77
2021/05/15 07:15:22;;;;;;;0.10;0.10;;;17.30;99.90;;;;;;6243443;22;20004;-75
2021/05/15 07:17:47;;;;;;;0.10;0.10;;;17.10;99.90;;;;;;6243486;22;20010;-76
2021/05/15 07:20:14;;;;;;;0.10;0.10;;;17.10;99.90;;;;;;6243147;23;20353;-77
2021/05/15 07:22:42;;;;;;;0.10;0.10;;;17.00;99.90;;;;;;6243518;22;20062;-77
2021/05/15 07:25:09;;;;;;;0.10;0.10;;;17.00;99.90;;;;;;6242712;22;20517;-76
2021/05/15 07:27:34;;;;;;;0.10;0.10;;;16.90;99.90;;;;;;6242086;22;20000;-77
2021/05/15 07:30:02;;;;;;;0.10;0.10;;;16.90;99.90;;;;;;6214207;22;20127;-77
2021/05/15 07:32:28;;;;;;;0.10;0.10;;;16.90;99.90;;;;;;6241611;22;20498;-76
2021/05/15 07:34:53;;;;;;;0.10;0.10;;;17.00;99.90;;;;;;6214319;23;20004;-75
2021/05/15 07:37:19;;;;;;;0.10;0.10;;;17.00;99.90;;;;;;6241649;23;20000;-77
2021/05/15 07:39:45;;;;;;;0.10;0.10;;;17.30;99.90;;;;;;6240604;23;20012;-76
2021/05/15 07:42:12;;;;;;;0.10;0.10;;;17.60;99.90;;;;;;6241367;22;20027;-78
2021/05/15 07:44:37;;;;;;;0.10;0.10;;;17.90;99.90;;;;;;6241078;23;20008;-77
2021/05/15 07:47:04;;;;;;;0.10;0.10;;;18.20;99.90;;;;;;6243012;23;20000;-77
2021/05/15 07:49:30;;;;;;;0.10;0.10;;;18.70;99.20;;;;;;6242016;23;20101;-77
2021/05/15 07:51:56;;;;;;;0.10;0.10;;;19.10;99.90;;;;;;6242629;22;20046;-77
2021/05/15 07:54:22;;;;;;;0.10;0.10;;;19.40;96.60;;;;;;6215615;23;20599;-77
2021/05/15 07:56:50;;;;;;;0.10;0.10;;;19.60;95.50;;;;;;6243428;22;19996;-77
2021/05/15 07:59:16;;;;;;;0.10;0.10;;;19.90;92.40;;;;;;6215749;23;20012;-78
2021/05/15 08:01:42;;;;;;;0.10;0.10;;;19.90;92.80;;;;;;6242981;22;20362;-75
2021/05/15 08:04:08;;;;;;;0.10;0.10;;;20.20;95.40;;;;;;6215580;23;20142;-77
2021/05/15 08:06:34;;;;;;;0.10;0.10;;;20.40;93.80;;;;;;6242939;23;20047;-78
2021/05/15 08:09:00;;;;;;;0.10;0.10;;;20.60;92.60;;;;;;6215131;23;20431;-76
2021/05/15 08:11:26;;;;;;;0.10;0.10;;;20.80;90.90;;;;;;6242916;22;20043;-77
2021/05/15 08:13:52;;;;;;;0.10;0.10;;;20.80;91.90;;;;;;6241921;23;20061;-77
2021/05/15 08:16:18;;;;;;;0.10;0.10;;;20.90;91.00;;;;;;6242622;23;20050;-78
2021/05/15 08:18:44;;;;;;;0.10;0.10;;;20.70;90.00;;;;;;6242294;23;20034;-77
2021/05/15 08:21:11;;;;;;;0.10;0.10;;;20.30;89.50;;;;;;6242474;23;19996;-78
2021/05/15 08:23:38;;;;;;;0.10;0.10;;;20.00;86.30;;;;;;6215262;23;20024;-77
2021/05/15 08:26:12;;;;;;;0.10;0.10;;;20.00;91.50;;;;;;6242982;22;20271;-78
2021/05/15 08:28:46;;;;;;;0.10;0.10;;;19.90;91.00;;;;;;6215326;23;20000;-77
2021/05/15 08:31:12;;;;;;;0.10;0.10;;;19.90;91.20;;;;;;6215584;23;20011;-77
2021/05/15 08:33:38;;;;;;;0.10;0.10;;;19.60;92.40;;;;;;6242220;22;20000;-78
2021/05/15 08:36:05;;;;;;;0.10;0.10;;;19.30;93.20;;;;;;6241692;23;20062;-78
2021/05/15 08:38:32;;;;;;;0.10;0.10;;;19.10;93.20;;;;;;6242110;22;19996;-78
2021/05/15 08:40:58;;;;;;;0.10;0.10;;;18.80;95.40;;;;;;6242808;23;20004;-77
2021/05/15 08:43:28;;;;;;;0.10;0.10;;;18.10;94.60;;;;;;6242053;23;20131;-77
2021/05/15 08:46:03;;;;;;;0.10;0.10;;;17.60;97.00;;;;;;6215221;23;20062;-78
2021/05/15 08:48:32;;;;;;;0.10;0.10;;;17.60;98.80;;;;;;6241783;23;19996;-78
2021/05/15 08:50:59;;;;;;;0.10;0.10;;;17.40;98.90;;;;;;6215191;23;20011;-77
2021/05/15 08:53:26;;;;;;;0.10;0.10;;;17.20;98.30;;;;;;6214653;23;20008;-77
2021/05/15 08:55:52;;;;;;;0.10;0.10;;;16.90;98.60;;;;;;6242156;22;20004;-78
2021/05/15 08:58:20;;;;;;;0.10;0.10;;;16.60;99.90;;;;;;6241937;23;20081;-78
2021/05/15 09:00:48;;;;;;;0.10;0.10;;;16.60;99.90;;;;;;6215312;23;20008;-78
2021/05/15 09:03:16;;;;;;;0.10;0.10;;;16.80;99.90;;;;;;6214346;22;20061;-78
2021/05/15 09:05:46;;;;;;;0.10;0.10;;;16.90;99.90;;;;;;6242279;23;20008;-78
2021/05/15 09:08:12;;;;;;;0.10;0.10;;;17.20;99.90;;;;;;6242055;23;20344;-78
2021/05/15 09:10:40;;;;;;;0.10;0.10;;;17.40;99.90;;;;;;6242310;23;20012;-78
2021/05/15 09:13:13;;;;;;;0.10;0.10;;;17.60;99.90;;;;;;6241954;23;20020;-78
2021/05/15 09:15:42;;;;;;;0.10;0.10;;;18.10;99.30;;;;;;6241692;23;20004;-77
2021/05/15 09:18:09;;;;;;;0.10;0.10;;;18.00;99.30;;;;;;6214394;22;19996;-77
2021/05/15 09:20:37;;;;;;;0.10;0.10;;;18.00;98.60;;;;;;6242084;22;20000;-78
2021/05/15 09:23:14;;;;;;;0.10;0.10;;;18.10;99.90;;;;;;6241680;22;20427;-78
2021/05/15 09:25:40;;;;;;;0.10;0.10;;;18.00;99.90;;;;;;6215083;23;20070;-78
2021/05/15 09:28:06;;;;;;;0.10;0.10;;;18.40;99.00;;;;;;6241918;22;20146;-77
2021/05/15 09:30:33;;;;;;;0.10;0.10;;;18.40;98.80;;;;;;6215151;23;20014;-77
2021/05/15 09:33:13;;;;;;;0.10;0.10;;;18.50;99.90;;;;;;6214541;23;20334;-77
2021/05/15 09:35:39;;;;;;;0.10;0.10;;;18.60;99.90;;;;;;6215383;23;20041;-77
2021/05/15 09:38:05;;;;;;;0.10;0.10;;;18.80;99.20;;;;;;6241793;23;19996;-77
2021/05/15 09:40:31;;;;;;;0.10;0.10;;;18.60;99.90;;;;;;6241774;22;20000;-77
2021/05/15 09:43:02;;;;;;;0.10;0.10;;;18.40;99.70;;;;;;6242390;22;20007;-77
2021/05/15 09:45:33;;;;;;;0.10;0.10;;;18.00;99.90;;;;;;6241797;23;20070;-77
2021/05/15 09:48:05;;;;;;;0.10;0.10;;;18.00;99.90;;;;;;6242028;22;20454;-77
2021/05/15 09:50:33;;;;;;;0.10;0.10;;;18.00;97.90;;;;;;6242122;23;20008;-77
2021/05/15 09:53:08;;;;;;;0.10;0.10;;;17.90;96.90;;;;;;6241377;22;20495;-77
2021/05/15 09:55:35;;;;;;;0.10;0.10;;;18.40;99.90;;;;;;6215355;22;20012;-77
2021/05/15 09:58:07;;;;;;;0.10;0.10;;;18.80;96.80;;;;;;6241686;22;20184;-77
2021/05/15 10:00:41;;;;;;;0.10;0.10;;;18.90;96.30;;;;;;6241657;23;20020;-77
2021/05/15 10:03:20;;;;;;;0.10;0.10;;;18.70;98.50;;;;;;6241451;23;19997;-77
2021/05/15 10:05:56;;;;;;;0.10;0.10;;;18.70;97.70;;;;;;6215266;23;20066;-77
2021/05/15 10:08:22;;;;;;;0.10;0.10;;;19.00;98.60;;;;;;6241380;23;20140;-77
2021/05/15 10:10:48;;;;;;;0.10;0.10;;;19.20;97.20;;;;;;6215169;23;20008;-77
2021/05/15 10:13:14;;;;;;;0.10;0.10;;;19.70;96.10;;;;;;6241496;22;20027;-77
2021/05/15 10:15:40;;;;;;;0.10;0.10;;;19.90;94.30;;;;;;6241611;22;20008;-78
2021/05/15 10:18:06;;;;;;;0.10;0.10;;;20.00;94.80;;;;;;6241591;23;20004;-77
2021/05/15 10:20:32;;;;;;;0.10;0.10;;;19.70;95.70;;;;;;6242023;22;20004;-77
2021/05/15 10:22:57;;;;;;;0.10;0.10;;;19.40;95.90;;;;;;6214302;23;20012;-76
2021/05/15 10:25:23;;;;;;;0.10;0.10;;;19.20;95.50;;;;;;6241916;23;20008;-78
2021/05/15 10:27:49;;;;;;;0.10;0.10;;;19.00;96.20;;;;;;6241889;23;20028;-79
2021/05/15 10:30:21;;;;;;;0.10;0.10;;;18.80;96.60;;;;;;6214206;23;20011;-79
2021/05/15 10:32:55;;;;;;;0.10;0.10;;;19.20;95.50;;;;;;6241520;22;20014;-78
2021/05/15 10:35:55;;;;;;;0.10;0.10;;;19.80;96.00;;;;;;6241436;23;20035;-78
2021/05/15 10:38:21;;;;;;;0.10;0.10;;;19.70;93.80;;;;;;6233518;23;20011;-78
2021/05/15 10:40:51;;;;;;;0.10;0.10;;;19.80;95.50;;;;;;6242194;22;20000;-78
2021/05/15 10:43:34;;;;;;;0.10;0.10;;;19.70;96.50;;;;;;6214544;23;20004;-79
2021/05/15 10:46:17;;;;;;;0.10;0.10;;;19.80;95.30;;;;;;6242878;23;20011;-78
2021/05/15 10:49:00;;;;;;;0.10;0.10;;;19.70;96.90;;;;;;6243346;22;20011;-79
2021/05/15 10:51:31;;;;;;;0.10;0.10;;;19.90;97.10;;;;;;6243428;22;20466;-78
2021/05/15 10:53:58;;;;;;;0.10;0.10;;;20.20;95.10;;;;;;6242651;23;20000;-77
2021/05/15 10:56:31;;;;;;;0.10;0.10;;;20.30;95.30;;;;;;6243655;22;20000;-78
2021/05/15 10:59:04;;;;;;;0.10;0.10;;;20.10;95.70;;;;;;6242914;23;20154;-77
2021/05/15 11:01:52;;;;;;;0.10;0.10;;;20.10;96.70;;;;;;6243125;22;19996;-76
2021/05/15 11:04:26;;;;;;;0.10;0.10;;;19.90;97.70;;;;;;6242276;22;20079;-76
2021/05/15 11:07:02;;;;;;;0.10;0.10;;;19.30;96.00;;;;;;6243343;22;20079;-77
2021/05/15 11:09:29;;;;;;;0.10;0.10;;;18.80;99.90;;;;;;6243166;22;20011;-76
2021/05/15 11:12:07;;;;;;;0.10;0.10;;;18.70;99.80;;;;;;6243253;23;20000;-77
2021/05/15 11:14:39;;;;;;;0.10;0.10;;;18.30;99.90;;;;;;6242784;23;20091;-77
2021/05/15 11:17:20;;;;;;;0.10;0.10;;;18.30;99.90;;;;;;6243083;23;20007;-78
2021/05/15 11:19:53;;;;;;;0.10;0.10;;;18.20;99.90;;;;;;6215952;23;20012;-76
2021/05/15 11:22:21;;;;;;;0.10;0.10;;;18.50;99.90;;;;;;6242861;23;20007;-76
2021/05/15 11:25:15;;;;;;;0.10;0.10;;;18.20;99.90;;;;;;6215670;23;20336;-77
2021/05/15 11:28:02;;;;;;;0.10;0.10;;;18.10;99.90;;;;;;6243101;22;20004;-76
2021/05/15 11:30:31;;;;;;;0.10;0.10;;;17.60;99.90;;;;;;6216022;23;20130;-76
2021/05/15 11:32:59;;;;;;;0.10;0.10;;;17.30;99.90;;;;;;6242891;22;20000;-76
2021/05/15 11:35:25;;;;;;;0.10;0.10;;;17.30;99.90;;;;;;6242532;23;20004;-76
2021/05/15 11:38:02;;;;;;;0.10;0.10;;;17.30;99.90;;;;;;6242920;22;20035;-76
2021/05/15 11:40:28;;;;;;;0.10;0.10;;;17.30;99.90;;;;;;6216093;23;20103;-76
2021/05/15 11:42:57;;;;;;;0.10;0.10;;;17.40;99.90;;;;;;6242703;22;20004;-77
2021/05/15 11:45:26;;;;;;;0.10;0.10;;;17.40;99.90;;;;;;6242638;23;20016;-77
2021/05/15 11:48:05;;;;;;;0.10;0.10;;;17.40;99.90;;;;;;6242700;22;19996;-77
2021/05/15 11:50:31;;;;;;;0.10;0.10;;;17.40;99.90;;;;;;6242982;23;20000;-77
2021/05/15 11:53:02;;;;;;;0.10;0.10;;;17.40;99.90;;;;;;6242989;23;20007;-76
2021/05/15 11:55:28;;;;;;;0.10;0.10;;;17.40;99.90;;;;;;6242723;23;20000;-76
2021/05/15 11:57:57;;;;;;;0.10;0.10;;;17.30;99.90;;;;;;6215267;23;20331;-77
2021/05/15 12:00:27;;;;;;;0.10;0.10;;;17.30;99.90;;;;;;6215265;23;20031;-77
2021/05/15 12:02:53;;;;;;;0.20;0.20;;;17.40;99.90;;;;;;6242548;22;20008;-78
2021/05/15 12:05:19;;;;;;;0.20;0.20;;;19.30;98.80;;;;;;6242378;22;20016;-76
2021/05/15 12:07:53;;;;;;;0.20;0.20;;;21.40;94.60;;;;;;6242872;23;20370;-77
2021/05/15 12:10:21;;;;;;;0.20;0.20;;;22.80;89.10;;;;;;6242591;22;20275;-77
2021/05/15 12:12:55;;;;;;;0.20;0.20;;;23.90;81.60;;;;;;6214980;23;20027;-77
2021/05/15 12:15:22;;;;;;;0.10;0.10;;;25.20;77.90;;;;;;6241342;22;20027;-79
2021/05/15 12:17:48;;;;;;;0.20;0.20;;;25.40;69.50;;;;;;6242615;23;20368;-77
2021/05/15 12:20:38;;;;;;;0.20;0.20;;;26.20;68.30;;;;;;6215008;23;20035;-78
2021/05/15 12:23:20;;;;;;;0.10;0.10;;;26.70;65.80;;;;;;6214797;23;20305;-78
2021/05/15 12:26:00;;;;;;;0.10;0.10;;;26.80;65.10;;;;;;6241464;23;20066;-78
2021/05/15 12:28:29;;;;;;;0.20;0.20;;;28.10;57.50;;;;;;6214675;23;20443;-79
2021/05/15 12:30:56;;;;;;;0.20;0.20;;;28.00;58.50;;;;;;6242260;23;20450;-80
2021/05/15 12:33:27;;;;;;;0.10;0.10;;;27.20;57.70;;;;;;6242135;23;19996;-79
2021/05/15 12:36:00;;;;;;;0.20;0.20;;;27.40;57.60;;;;;;6242550;23;20008;-79
2021/05/15 12:38:27;;;;;;;0.20;0.20;;;27.20;57.90;;;;;;6242210;23;20082;-79
2021/05/15 12:40:53;;;;;;;0.10;0.10;;;27.80;55.80;;;;;;6240600;22;20008;-79
2021/05/15 12:43:22;;;;;;;0.20;0.20;;;27.30;54.80;;;;;;6241943;23;20584;-79
2021/05/15 12:45:49;;;;;;;0.10;0.10;;;27.50;55.90;;;;;;6242394;22;20379;-81
2021/05/15 12:48:37;;;;;;;0.20;0.20;;;28.40;53.90;;;;;;6240619;23;20078;-79
2021/05/15 12:51:07;;;;;;;0.13;0.13;;;27.30;54.40;;;;;;6241706;22;20615;-78